Time;durP1;ratioP1;P1;durP2;ratioP2;P2;SDS_P1;SDS_P2;PMS_P1;PMS_P2;Temp;Humidity;BMP_temperature;BMP_pressure;BME280_temperature;BME280_humidity;BME280_pressure;Samples;Min_cycle;Max_cycle;Signal;HPM_P1;HPM_P2
2022/04/13 00:01:24;;;;;;;26.23;12.68;;;;;;;;;;5003516;28;20491;-80
2022/04/13 00:03:50;;;;;;;29.15;16.50;;;;;;;;;;5008372;28;20030;-80
2022/04/13 00:06:16;;;;;;;27.75;16.38;;;;;;;;;;5007933;28;20021;-80
2022/04/13 00:08:44;;;;;;;31.65;18.02;;;;;;;;;;5005837;28;20061;-80
2022/04/13 00:11:10;;;;;;;35.38;19.08;;;;;;;;;;5009289;28;20037;-80
2022/04/13 00:13:36;;;;;;;41.85;19.45;;;;;;;;;;4996637;28;20370;-80
2022/04/13 00:16:01;;;;;;;38.85;21.88;;;;;;;;;;5003942;28;20033;-80
2022/04/13 00:18:27;;;;;;;41.00;21.30;;;;;;;;;;5003710;28;20115;-80
2022/04/13 00:20:53;;;;;;;43.97;21.90;;;;;;;;;;5007451;28;20018;-79
2022/04/13 00:23:19;;;;;;;43.28;20.77;;;;;;;;;;5004894;28;20033;-79
2022/04/13 00:25:47;;;;;;;47.65;21.52;;;;;;;;;;5006259;28;20428;-79
2022/04/13 00:28:14;;;;;;;45.30;21.55;;;;;;;;;;5007557;28;20493;-79
2022/04/13 00:30:39;;;;;;;49.10;21.92;;;;;;;;;;5004343;28;20038;-79
2022/04/13 00:33:05;;;;;;;54.55;24.55;;;;;;;;;;4999048;28;20037;-79
2022/04/13 00:35:32;;;;;;;51.13;25.38;;;;;;;;;;5003492;28;20026;-79
2022/04/13 00:37:58;;;;;;;55.85;26.20;;;;;;;;;;5007012;28;20420;-79
2022/04/13 00:40:24;;;;;;;48.50;24.83;;;;;;;;;;5000426;28;20114;-79
2022/04/13 00:42:50;;;;;;;47.97;23.60;;;;;;;;;;5008503;28;20022;-79
2022/04/13 00:45:16;;;;;;;38.10;19.55;;;;;;;;;;5003385;28;20025;-79
2022/04/13 00:47:43;;;;;;;43.60;20.67;;;;;;;;;;5006212;28;20038;-79
2022/04/13 00:50:10;;;;;;;38.83;18.23;;;;;;;;;;4999017;28;20092;-79
2022/04/13 00:52:40;;;;;;;27.65;15.77;;;;;;;;;;5003604;28;20038;-79
2022/04/13 00:55:07;;;;;;;28.08;14.85;;;;;;;;;;5004226;28;20045;-79
2022/04/13 00:57:35;;;;;;;23.17;13.68;;;;;;;;;;5001803;28;20046;-79
2022/04/13 01:00:02;;;;;;;27.55;14.27;;;;;;;;;;5007772;28;20491;-79
2022/04/13 01:02:28;;;;;;;25.48;12.20;;;;;;;;;;5008212;28;20083;-79
2022/04/13 01:04:55;;;;;;;21.05;11.38;;;;;;;;;;5013250;28;20038;-79
2022/04/13 01:07:22;;;;;;;21.80;10.55;;;;;;;;;;5000656;28;20068;-79
2022/04/13 01:09:49;;;;;;;19.13;10.25;;;;;;;;;;5008506;28;20096;-79
2022/04/13 01:12:15;;;;;;;17.30;9.95;;;;;;;;;;4998590;28;20490;-79
2022/04/13 01:14:41;;;;;;;17.65;10.15;;;;;;;;;;5004310;28;20038;-79
2022/04/13 01:17:07;;;;;;;18.98;9.73;;;;;;;;;;5003803;28;20034;-80
2022/04/13 01:19:33;;;;;;;15.18;9.63;;;;;;;;;;5010401;28;20040;-79
2022/04/13 01:22:03;;;;;;;16.15;8.77;;;;;;;;;;5007480;28;20022;-79
2022/04/13 01:24:29;;;;;;;20.20;9.13;;;;;;;;;;5016120;28;20037;-79
2022/04/13 01:26:56;;;;;;;15.57;8.95;;;;;;;;;;5010006;28;20037;-79
2022/04/13 01:29:22;;;;;;;14.23;9.10;;;;;;;;;;5007441;28;20030;-79
2022/04/13 01:31:49;;;;;;;16.40;8.88;;;;;;;;;;5010005;28;20112;-79
2022/04/13 01:34:15;;;;;;;15.05;8.55;;;;;;;;;;5010732;28;20030;-79
2022/04/13 01:36:41;;;;;;;15.60;8.77;;;;;;;;;;5007837;28;20667;-79
2022/04/13 01:39:08;;;;;;;16.33;8.43;;;;;;;;;;5001962;28;20080;-79
2022/04/13 01:41:34;;;;;;;14.32;8.68;;;;;;;;;;5014011;28;20025;-79
2022/04/13 01:44:00;;;;;;;15.93;7.95;;;;;;;;;;5004062;28;20259;-79
2022/04/13 01:46:26;;;;;;;14.60;8.23;;;;;;;;;;5006345;28;20385;-80
2022/04/13 01:48:52;;;;;;;14.90;8.70;;;;;;;;;;5008988;28;20034;-79
2022/04/13 01:51:20;;;;;;;14.32;8.38;;;;;;;;;;5011406;28;20021;-79
2022/04/13 01:53:46;;;;;;;20.58;8.95;;;;;;;;;;5008011;28;20045;-79
2022/04/13 01:56:12;;;;;;;15.35;8.43;;;;;;;;;;5011179;28;20026;-79
2022/04/13 01:58:38;;;;;;;17.20;8.25;;;;;;;;;;5010757;28;20060;-80
2022/04/13 02:01:04;;;;;;;13.90;7.72;;;;;;;;;;5002237;28;20025;-79
2022/04/13 02:03:30;;;;;;;13.88;8.68;;;;;;;;;;5004135;28;20029;-80
2022/04/13 02:05:56;;;;;;;16.65;8.30;;;;;;;;;;5009956;28;20038;-79
2022/04/13 02:08:22;;;;;;;15.05;8.63;;;;;;;;;;5008342;28;20499;-79
2022/04/13 02:10:48;;;;;;;14.75;9.05;;;;;;;;;;5010463;28;20072;-79
2022/04/13 02:13:14;;;;;;;15.98;8.68;;;;;;;;;;5006038;28;20038;-79
2022/04/13 02:15:41;;;;;;;15.52;8.90;;;;;;;;;;5009604;28;20037;-79
2022/04/13 02:18:07;;;;;;;16.40;8.93;;;;;;;;;;5005274;28;20018;-79
2022/04/13 02:20:33;;;;;;;17.48;9.73;;;;;;;;;;5005950;28;20523;-78
2022/04/13 02:23:01;;;;;;;18.58;9.45;;;;;;;;;;5007156;28;20033;-79
2022/04/13 02:25:27;;;;;;;19.00;9.13;;;;;;;;;;5005335;28;20559;-80
2022/04/13 02:27:53;;;;;;;14.70;9.15;;;;;;;;;;5004758;28;20038;-79
2022/04/13 02:30:19;;;;;;;15.40;9.70;;;;;;;;;;5004602;28;20026;-79
2022/04/13 02:32:45;;;;;;;15.85;8.93;;;;;;;;;;5005599;28;20221;-79
2022/04/13 02:35:11;;;;;;;17.73;8.90;;;;;;;;;;5009282;28;20433;-79
2022/04/13 02:37:38;;;;;;;16.80;8.68;;;;;;;;;;5006841;28;20034;-79
2022/04/13 02:40:06;;;;;;;21.15;9.38;;;;;;;;;;5004681;28;20025;-80
2022/04/13 02:42:35;;;;;;;16.33;8.38;;;;;;;;;;4999359;28;20700;-80
2022/04/13 02:45:01;;;;;;;18.27;9.25;;;;;;;;;;5004625;28;20108;-80
2022/04/13 02:47:27;;;;;;;16.15;8.80;;;;;;;;;;5007393;28;20030;-80
2022/04/13 02:49:54;;;;;;;14.77;8.68;;;;;;;;;;5011772;28;20053;-79
2022/04/13 02:52:20;;;;;;;14.45;8.98;;;;;;;;;;5006865;28;20034;-80
2022/04/13 02:54:46;;;;;;;17.42;9.30;;;;;;;;;;5005819;28;20042;-75
2022/04/13 02:57:12;;;;;;;22.58;9.98;;;;;;;;;;5004885;28;20171;-82
2022/04/13 02:59:38;;;;;;;23.70;11.10;;;;;;;;;;5004163;28;20112;-76
2022/04/13 03:02:04;;;;;;;17.48;9.85;;;;;;;;;;5001446;28;20069;-78
2022/04/13 03:04:34;;;;;;;18.58;9.20;;;;;;;;;;5006199;28;20044;-80
2022/04/13 03:07:00;;;;;;;16.05;9.20;;;;;;;;;;5002623;28;20496;-81
2022/04/13 03:09:26;;;;;;;14.65;9.05;;;;;;;;;;5014065;28;20049;-80
2022/04/13 03:11:52;;;;;;;19.23;9.30;;;;;;;;;;5014512;28;20052;-80
2022/04/13 03:14:18;;;;;;;19.52;9.40;;;;;;;;;;5009148;28;20117;-81
2022/04/13 03:16:45;;;;;;;15.43;8.70;;;;;;;;;;5005109;28;20512;-80
2022/04/13 03:19:11;;;;;;;14.05;8.90;;;;;;;;;;5019315;28;20025;-81
2022/04/13 03:21:37;;;;;;;16.23;8.95;;;;;;;;;;5003404;28;20077;-81
2022/04/13 03:24:03;;;;;;;19.42;9.75;;;;;;;;;;5025283;28;20133;-81
2022/04/13 03:26:29;;;;;;;17.20;8.88;;;;;;;;;;5022150;28;20038;-81
2022/04/13 03:28:55;;;;;;;13.25;8.75;;;;;;;;;;5007816;28;20497;-81
2022/04/13 03:31:22;;;;;;;23.58;9.20;;;;;;;;;;5019811;28;20772;-81
2022/04/13 03:33:48;;;;;;;16.92;9.18;;;;;;;;;;5011877;28;20119;-78
2022/04/13 03:36:16;;;;;;;16.80;8.60;;;;;;;;;;5000018;28;20030;-81
2022/04/13 03:38:42;;;;;;;16.23;9.23;;;;;;;;;;5001825;28;20046;-80
2022/04/13 03:41:08;;;;;;;17.08;9.02;;;;;;;;;;5000321;28;20072;-81
2022/04/13 03:43:34;;;;;;;16.42;8.52;;;;;;;;;;4999866;28;20056;-81
2022/04/13 03:46:00;;;;;;;17.73;9.35;;;;;;;;;;5004638;28;20407;-81
2022/04/13 03:48:26;;;;;;;18.33;9.20;;;;;;;;;;5007727;28;20021;-81
2022/04/13 03:50:55;;;;;;;15.38;8.80;;;;;;;;;;5008358;28;20461;-81
2022/04/13 03:53:21;;;;;;;17.20;8.63;;;;;;;;;;5004994;28;20052;-80
2022/04/13 03:55:47;;;;;;;13.80;8.10;;;;;;;;;;5008632;28;20454;-80
2022/04/13 03:58:13;;;;;;;17.30;9.02;;;;;;;;;;5004074;28;20022;-80
2022/04/13 04:00:39;;;;;;;15.77;8.82;;;;;;;;;;5002523;28;20381;-81
2022/04/13 04:03:05;;;;;;;14.68;8.82;;;;;;;;;;5006779;28;20033;-80
2022/04/13 04:05:30;;;;;;;19.63;9.05;;;;;;;;;;4996153;28;20030;-80
2022/04/13 04:07:56;;;;;;;17.58;8.82;;;;;;;;;;5006572;28;20034;-81
2022/04/13 04:10:22;;;;;;;17.25;8.82;;;;;;;;;;4997906;28;20030;-80
2022/04/13 04:12:48;;;;;;;19.73;9.27;;;;;;;;;;4997896;28;20206;-80
2022/04/13 04:15:14;;;;;;;15.30;8.65;;;;;;;;;;5005368;28;20042;-80
2022/04/13 04:17:40;;;;;;;16.95;9.13;;;;;;;;;;5006352;28;20049;-80
2022/04/13 04:20:07;;;;;;;21.38;9.18;;;;;;;;;;5000711;28;20080;-80
2022/04/13 04:22:34;;;;;;;18.13;8.48;;;;;;;;;;5004441;28;20029;-80
2022/04/13 04:25:01;;;;;;;18.13;8.45;;;;;;;;;;5004475;28;20022;-80
2022/04/13 04:27:27;;;;;;;20.08;8.68;;;;;;;;;;5004803;28;20409;-80
2022/04/13 04:29:53;;;;;;;15.88;8.55;;;;;;;;;;5007002;28;20578;-80
2022/04/13 04:32:19;;;;;;;15.77;8.77;;;;;;;;;;5003232;28;20052;-80
2022/04/13 04:34:45;;;;;;;17.10;9.15;;;;;;;;;;5011423;28;20465;-81
2022/04/13 04:37:10;;;;;;;14.80;8.50;;;;;;;;;;5009409;28;20484;-81
2022/04/13 04:39:37;;;;;;;16.33;8.77;;;;;;;;;;5008410;28;20061;-80
2022/04/13 04:42:04;;;;;;;14.80;8.27;;;;;;;;;;5005300;28;20025;-80
2022/04/13 04:44:29;;;;;;;17.42;8.65;;;;;;;;;;5009053;28;20025;-80
2022/04/13 04:46:55;;;;;;;17.08;8.65;;;;;;;;;;5009882;28;20034;-77
2022/04/13 04:49:21;;;;;;;16.48;8.77;;;;;;;;;;5008488;28;20543;-75
2022/04/13 04:51:47;;;;;;;15.65;8.98;;;;;;;;;;5009251;28;20106;-76
2022/04/13 04:54:13;;;;;;;15.18;8.38;;;;;;;;;;5007228;28;20025;-76
2022/04/13 04:56:39;;;;;;;16.13;8.45;;;;;;;;;;4998242;28;20025;-77
2022/04/13 04:59:05;;;;;;;14.38;8.52;;;;;;;;;;4997708;28;20026;-76
2022/04/13 05:01:31;;;;;;;17.88;9.23;;;;;;;;;;5000453;28;20026;-76
2022/04/13 05:03:57;;;;;;;18.70;8.93;;;;;;;;;;5003646;28;20036;-76
2022/04/13 05:06:25;;;;;;;17.35;8.30;;;;;;;;;;5002633;28;20025;-76
2022/04/13 05:08:51;;;;;;;16.35;9.13;;;;;;;;;;4998347;28;20604;-76
2022/04/13 05:11:18;;;;;;;17.98;9.80;;;;;;;;;;5005687;28;20482;-76
2022/04/13 05:13:45;;;;;;;15.43;8.63;;;;;;;;;;4996380;28;20046;-76
2022/04/13 05:16:11;;;;;;;18.98;9.43;;;;;;;;;;5004020;28;20032;-76
2022/04/13 05:18:37;;;;;;;19.95;9.23;;;;;;;;;;5013195;28;20076;-76
2022/04/13 05:21:04;;;;;;;17.58;8.98;;;;;;;;;;5010519;28;20493;-76
2022/04/13 05:23:29;;;;;;;15.10;9.07;;;;;;;;;;5011136;28;20049;-76
2022/04/13 05:25:55;;;;;;;14.95;8.52;;;;;;;;;;5010105;28;20465;-76
2022/04/13 05:28:21;;;;;;;19.90;9.57;;;;;;;;;;5011368;28;20026;-76
2022/04/13 05:30:47;;;;;;;15.25;8.70;;;;;;;;;;5010645;28;20022;-76
2022/04/13 05:33:13;;;;;;;23.67;9.10;;;;;;;;;;5011013;28;20586;-76
2022/04/13 05:35:40;;;;;;;22.45;8.70;;;;;;;;;;5010938;28;20052;-76
2022/04/13 05:38:06;;;;;;;21.10;9.70;;;;;;;;;;5010689;28;20037;-76
2022/04/13 05:40:33;;;;;;;18.05;8.95;;;;;;;;;;5009749;28;20056;-76
2022/04/13 05:42:58;;;;;;;16.33;8.88;;;;;;;;;;5010585;28;20461;-76
2022/04/13 05:45:25;;;;;;;17.17;8.95;;;;;;;;;;5010028;28;20040;-76
2022/04/13 05:47:51;;;;;;;16.15;8.98;;;;;;;;;;5010103;28;20060;-76
2022/04/13 05:50:17;;;;;;;15.52;8.98;;;;;;;;;;5010869;28;20045;-76
2022/04/13 05:52:43;;;;;;;18.27;8.80;;;;;;;;;;5010287;28;20084;-76
2022/04/13 05:55:09;;;;;;;18.17;9.15;;;;;;;;;;5010607;28;20046;-76
2022/04/13 05:57:35;;;;;;;15.90;8.60;;;;;;;;;;5009689;28;20030;-76
2022/04/13 06:00:01;;;;;;;18.98;9.90;;;;;;;;;;5010789;28;20026;-77
2022/04/13 06:02:27;;;;;;;21.20;9.00;;;;;;;;;;5010516;28;20127;-76
2022/04/13 06:04:53;;;;;;;20.25;9.18;;;;;;;;;;5010556;28;20030;-76
2022/04/13 06:07:19;;;;;;;19.73;9.48;;;;;;;;;;5010745;28;20034;-76
2022/04/13 06:09:45;;;;;;;23.45;8.95;;;;;;;;;;5010071;28;20054;-76
2022/04/13 06:12:11;;;;;;;16.38;8.88;;;;;;;;;;5009565;28;20459;-76
2022/04/13 06:14:37;;;;;;;14.35;8.80;;;;;;;;;;5010109;28;20030;-76
2022/04/13 06:17:03;;;;;;;20.88;9.07;;;;;;;;;;5004969;28;20030;-75
2022/04/13 06:19:29;;;;;;;14.90;8.85;;;;;;;;;;4999635;28;20018;-76
2022/04/13 06:21:55;;;;;;;19.48;9.95;;;;;;;;;;5000447;28;20026;-76
2022/04/13 06:24:24;;;;;;;15.70;8.88;;;;;;;;;;5001419;28;20034;-76
2022/04/13 06:26:50;;;;;;;19.13;9.45;;;;;;;;;;4996549;28;20121;-76
2022/04/13 06:29:15;;;;;;;20.67;9.02;;;;;;;;;;5003162;28;20109;-76
2022/04/13 06:31:41;;;;;;;15.43;8.80;;;;;;;;;;4998444;28;20034;-77
2022/04/13 06:34:07;;;;;;;17.33;9.18;;;;;;;;;;5000480;28;20030;-76
2022/04/13 06:36:33;;;;;;;17.08;9.13;;;;;;;;;;4996590;28;20054;-76
2022/04/13 06:38:59;;;;;;;13.85;8.60;;;;;;;;;;4996015;28;20042;-76
2022/04/13 06:41:25;;;;;;;14.68;8.50;;;;;;;;;;4999080;28;20030;-77
2022/04/13 06:43:53;;;;;;;18.73;9.20;;;;;;;;;;4997026;28;20121;-76
2022/04/13 06:46:19;;;;;;;20.20;8.85;;;;;;;;;;4992636;28;20072;-76
2022/04/13 06:48:45;;;;;;;15.65;8.38;;;;;;;;;;5005566;28;20405;-76
2022/04/13 06:51:11;;;;;;;18.83;9.13;;;;;;;;;;4992349;28;20481;-76
2022/04/13 06:53:37;;;;;;;17.20;9.05;;;;;;;;;;5002152;28;20030;-76
2022/04/13 06:56:03;;;;;;;15.48;8.77;;;;;;;;;;5000045;28;20030;-76
2022/04/13 06:58:29;;;;;;;17.98;8.88;;;;;;;;;;4999116;28;20454;-77
2022/04/13 07:00:57;;;;;;;16.52;8.90;;;;;;;;;;5002085;28;20037;-75
2022/04/13 07:03:23;;;;;;;22.58;8.98;;;;;;;;;;4994943;28;20045;-76
2022/04/13 07:05:49;;;;;;;15.65;8.70;;;;;;;;;;4997845;28;20022;-76
2022/04/13 07:08:15;;;;;;;17.08;8.90;;;;;;;;;;4999132;28;20211;-76
2022/04/13 07:10:41;;;;;;;17.98;9.50;;;;;;;;;;5002883;28;20518;-76
2022/04/13 07:13:07;;;;;;;15.45;8.77;;;;;;;;;;5000396;28;20148;-76
2022/04/13 07:15:34;;;;;;;18.08;8.98;;;;;;;;;;4992567;28;20497;-76
2022/04/13 07:18:00;;;;;;;14.27;8.27;;;;;;;;;;5004491;28;20022;-76
2022/04/13 07:20:25;;;;;;;18.08;8.65;;;;;;;;;;4995560;28;20042;-76
2022/04/13 07:22:52;;;;;;;14.57;8.30;;;;;;;;;;5003982;28;20030;-76
2022/04/13 07:25:18;;;;;;;23.83;9.70;;;;;;;;;;4998075;28;20038;-76
2022/04/13 07:27:45;;;;;;;14.43;8.50;;;;;;;;;;4996717;28;20048;-76
2022/04/13 07:30:12;;;;;;;19.90;8.48;;;;;;;;;;4996907;28;20038;-76
2022/04/13 07:32:38;;;;;;;16.30;8.85;;;;;;;;;;5002724;28;20030;-76
2022/04/13 07:35:04;;;;;;;12.82;7.43;;;;;;;;;;5003047;28;20444;-76
2022/04/13 07:37:31;;;;;;;15.32;8.52;;;;;;;;;;4998293;28;20034;-76
2022/04/13 07:39:57;;;;;;;17.13;8.82;;;;;;;;;;4996956;28;20222;-76
2022/04/13 07:42:23;;;;;;;13.50;8.25;;;;;;;;;;5000771;28;20022;-76
2022/04/13 07:44:50;;;;;;;17.30;8.98;;;;;;;;;;5009944;28;20129;-76
2022/04/13 07:47:16;;;;;;;16.33;8.40;;;;;;;;;;4996907;28;20081;-76
2022/04/13 07:49:43;;;;;;;19.42;8.63;;;;;;;;;;4994701;28;20125;-75
2022/04/13 07:52:09;;;;;;;18.48;8.35;;;;;;;;;;4995999;28;20049;-76
2022/04/13 07:54:35;;;;;;;20.35;9.07;;;;;;;;;;4998549;28;20504;-75
2022/04/13 07:57:01;;;;;;;15.48;8.65;;;;;;;;;;4995931;28;20695;-76
2022/04/13 07:59:30;;;;;;;15.43;8.65;;;;;;;;;;5000607;28;20444;-76
2022/04/13 08:01:56;;;;;;;17.58;8.35;;;;;;;;;;5006282;28;20029;-76
2022/04/13 08:04:22;;;;;;;17.70;8.65;;;;;;;;;;4994155;28;20496;-76
2022/04/13 08:06:48;;;;;;;16.33;8.40;;;;;;;;;;4993269;28;20509;-76
2022/04/13 08:09:14;;;;;;;18.25;8.25;;;;;;;;;;5004197;28;20050;-76
2022/04/13 08:11:40;;;;;;;16.77;8.57;;;;;;;;;;5000882;28;20026;-75
2022/04/13 08:14:06;;;;;;;15.25;8.20;;;;;;;;;;4998908;28;20034;-76
2022/04/13 08:16:32;;;;;;;16.15;8.07;;;;;;;;;;4993179;28;20022;-76
2022/04/13 08:18:58;;;;;;;17.30;9.23;;;;;;;;;;4996855;28;20151;-76
2022/04/13 08:21:24;;;;;;;16.30;9.20;;;;;;;;;;4998029;28;20097;-75
2022/04/13 08:23:50;;;;;;;16.98;8.80;;;;;;;;;;4994325;28;20141;-75
2022/04/13 08:26:16;;;;;;;18.38;8.38;;;;;;;;;;4998318;28;20021;-75
2022/04/13 08:28:42;;;;;;;19.42;9.02;;;;;;;;;;5007317;28;20041;-76
2022/04/13 08:31:11;;;;;;;19.48;8.07;;;;;;;;;;5006357;28;20034;-76
2022/04/13 08:33:37;;;;;;;14.60;8.07;;;;;;;;;;4999788;28;20034;-76
2022/04/13 08:36:03;;;;;;;20.02;9.38;;;;;;;;;;5002042;28;20049;-76
2022/04/13 08:38:30;;;;;;;15.98;8.57;;;;;;;;;;4994285;28;20125;-76
2022/04/13 08:40:57;;;;;;;18.98;8.68;;;;;;;;;;4999042;28;20052;-76
2022/04/13 08:43:26;;;;;;;13.93;8.23;;;;;;;;;;5000709;28;20038;-76
2022/04/13 08:45:56;;;;;;;19.73;8.88;;;;;;;;;;4993655;28;20097;-75
2022/04/13 08:48:23;;;;;;;20.05;9.20;;;;;;;;;;4996902;28;20037;-76
2022/04/13 08:50:51;;;;;;;15.90;9.20;;;;;;;;;;5000394;28;20030;-75
2022/04/13 08:53:20;;;;;;;15.20;8.38;;;;;;;;;;5008045;28;20022;-76
2022/04/13 08:55:52;;;;;;;21.48;9.00;;;;;;;;;;4997161;28;20096;-76
2022/04/13 08:58:24;;;;;;;12.82;8.10;;;;;;;;;;4996473;28;20386;-75
2022/04/13 09:00:51;;;;;;;14.25;8.38;;;;;;;;;;4989931;28;20054;-75
2022/04/13 09:03:21;;;;;;;14.45;7.85;;;;;;;;;;4999570;28;20137;-76
2022/04/13 09:05:50;;;;;;;13.88;8.07;;;;;;;;;;4991473;28;20097;-76
2022/04/13 09:08:37;;;;;;;14.73;8.30;;;;;;;;;;5000243;28;20511;-76
2022/04/13 09:11:04;;;;;;;15.77;8.45;;;;;;;;;;4995560;28;20058;-75
2022/04/13 09:13:32;;;;;;;15.20;8.38;;;;;;;;;;4997553;28;20053;-75
2022/04/13 09:15:58;;;;;;;14.70;8.07;;;;;;;;;;4999771;28;20519;-75
2022/04/13 09:18:24;;;;;;;16.98;8.43;;;;;;;;;;5000243;28;20085;-75
2022/04/13 09:20:51;;;;;;;15.57;8.75;;;;;;;;;;5002118;28;20432;-75
2022/04/13 09:23:17;;;;;;;17.63;8.68;;;;;;;;;;5005022;28;20030;-76
2022/04/13 09:25:43;;;;;;;15.00;8.30;;;;;;;;;;5007792;28;20127;-76
2022/04/13 09:28:09;;;;;;;16.75;8.82;;;;;;;;;;5000722;28;20053;-76
2022/04/13 09:30:35;;;;;;;15.52;8.85;;;;;;;;;;4999300;28;20034;-76
2022/04/13 09:33:03;;;;;;;14.35;8.50;;;;;;;;;;5001167;28;20026;-76
2022/04/13 09:35:31;;;;;;;14.95;8.70;;;;;;;;;;4999994;28;20037;-75
2022/04/13 09:37:57;;;;;;;18.40;8.88;;;;;;;;;;4994009;28;20026;-76
2022/04/13 09:40:26;;;;;;;16.27;8.80;;;;;;;;;;5009281;28;20538;-76
2022/04/13 09:42:52;;;;;;;16.77;8.65;;;;;;;;;;4995511;28;20034;-76
2022/04/13 09:45:18;;;;;;;18.88;8.43;;;;;;;;;;4997488;28;20033;-75
2022/04/13 09:47:46;;;;;;;15.68;8.82;;;;;;;;;;5001027;28;20034;-76
2022/04/13 09:50:23;;;;;;;18.05;8.93;;;;;;;;;;5004579;28;20034;-76
2022/04/13 09:52:52;;;;;;;19.08;8.65;;;;;;;;;;5001643;28;20481;-76
2022/04/13 09:55:22;;;;;;;14.90;8.63;;;;;;;;;;4999419;28;20045;-76
2022/04/13 09:57:48;;;;;;;14.65;8.50;;;;;;;;;;5005518;28;20539;-76
2022/04/13 10:00:14;;;;;;;12.38;7.88;;;;;;;;;;5007550;28;20030;-76
2022/04/13 10:02:44;;;;;;;16.27;8.32;;;;;;;;;;4997185;28;20120;-76
2022/04/13 10:05:20;;;;;;;16.75;8.45;;;;;;;;;;5008555;28;20038;-76
2022/04/13 10:07:46;;;;;;;19.08;8.57;;;;;;;;;;4998672;28;20393;-76
2022/04/13 10:10:32;;;;;;;13.70;8.00;;;;;;;;;;4999958;28;20096;-76
2022/04/13 10:13:01;;;;;;;14.75;8.48;;;;;;;;;;5006547;28;20096;-76
2022/04/13 10:15:27;;;;;;;16.77;7.93;;;;;;;;;;5001883;28;20045;-74
2022/04/13 10:18:00;;;;;;;14.70;8.15;;;;;;;;;;5008016;28;20046;-75
2022/04/13 10:20:45;;;;;;;15.65;8.30;;;;;;;;;;5029407;28;20112;-75
2022/04/13 10:23:12;;;;;;;14.25;8.02;;;;;;;;;;5012971;28;20504;-74
2022/04/13 10:25:38;;;;;;;14.50;7.50;;;;;;;;;;5008017;28;20041;-76
2022/04/13 10:28:04;;;;;;;13.18;8.10;;;;;;;;;;5005186;28;20021;-74
2022/04/13 10:30:35;;;;;;;15.48;7.88;;;;;;;;;;5012406;28;20026;-75
2022/04/13 10:33:05;;;;;;;13.75;7.68;;;;;;;;;;5006639;28;20044;-76
2022/04/13 10:35:35;;;;;;;15.20;7.83;;;;;;;;;;5004448;28;20032;-76
2022/04/13 10:38:03;;;;;;;13.20;7.90;;;;;;;;;;5008854;28;20018;-75
2022/04/13 10:40:33;;;;;;;14.35;7.45;;;;;;;;;;5000369;28;20022;-76
2022/04/13 10:43:01;;;;;;;12.75;7.07;;;;;;;;;;5001754;28;20030;-76
2022/04/13 10:45:30;;;;;;;14.10;7.57;;;;;;;;;;5008180;28;20026;-76
2022/04/13 10:47:59;;;;;;;14.73;7.35;;;;;;;;;;5005201;28;20022;-76
2022/04/13 10:50:32;;;;;;;13.18;7.50;;;;;;;;;;5008496;28;20021;-76
2022/04/13 10:53:00;;;;;;;12.93;7.65;;;;;;;;;;4999361;28;20026;-81
2022/04/13 10:55:29;;;;;;;14.20;7.97;;;;;;;;;;5006933;28;20026;-78
2022/04/13 10:58:01;;;;;;;9.48;6.47;;;;;;;;;;5007546;28;20029;-79
2022/04/13 11:00:29;;;;;;;14.07;7.25;;;;;;;;;;5010449;28;20105;-79
2022/04/13 11:02:58;;;;;;;12.45;7.30;;;;;;;;;;5012425;28;20125;-80
2022/04/13 11:05:25;;;;;;;14.77;7.10;;;;;;;;;;5001556;28;20043;-79
2022/04/13 11:08:09;;;;;;;12.68;6.53;;;;;;;;;;4997363;28;20072;-79
2022/04/13 11:10:36;;;;;;;11.90;6.75;;;;;;;;;;4993423;28;20046;-79
2022/04/13 11:13:02;;;;;;;10.93;6.85;;;;;;;;;;5008286;28;20033;-79
2022/04/13 11:15:38;;;;;;;11.32;7.00;;;;;;;;;;5008453;28;20080;-79
2022/04/13 11:18:08;;;;;;;7.38;5.07;;;;;;;;;;5009059;28;20022;-78
2022/04/13 11:20:34;;;;;;;10.20;6.20;;;;;;;;;;4999168;28;20022;-78
2022/04/13 11:23:08;;;;;;;10.82;6.85;;;;;;;;;;5005228;28;20033;-78
2022/04/13 11:25:48;;;;;;;13.05;7.50;;;;;;;;;;4993603;28;20122;-78
2022/04/13 11:28:27;;;;;;;12.25;6.38;;;;;;;;;;5007287;28;20026;-79
2022/04/13 11:30:59;;;;;;;12.57;6.45;;;;;;;;;;4999254;28;20512;-78
2022/04/13 11:33:39;;;;;;;10.25;6.38;;;;;;;;;;4992831;28;20038;-78
2022/04/13 11:36:05;;;;;;;8.80;5.97;;;;;;;;;;4997574;28;20037;-78
2022/04/13 11:38:36;;;;;;;9.93;5.70;;;;;;;;;;4995555;28;20366;-78
2022/04/13 11:41:02;;;;;;;;;;;;;;;;;;5001381;28;20409;-78
2022/04/13 11:43:28;;;;;;;12.70;6.43;;;;;;;;;;4995369;28;20014;-78
2022/04/13 11:45:54;;;;;;;13.00;6.55;;;;;;;;;;5006375;28;20095;-78
2022/04/13 11:48:35;;;;;;;9.57;6.43;;;;;;;;;;5002401;28;20049;-78
2022/04/13 11:51:20;;;;;;;11.73;6.90;;;;;;;;;;5004873;28;20116;-78
2022/04/13 11:53:55;;;;;;;10.40;6.20;;;;;;;;;;4998494;28;20057;-78
2022/04/13 11:56:32;;;;;;;11.20;6.68;;;;;;;;;;4995847;28;20084;-78
2022/04/13 11:58:58;;;;;;;12.05;6.60;;;;;;;;;;4998441;28;20073;-78
2022/04/13 12:01:25;;;;;;;9.57;6.53;;;;;;;;;;5002698;28;20049;-80
2022/04/13 12:03:52;;;;;;;10.23;6.22;;;;;;;;;;5006161;28;20022;-79
2022/04/13 12:06:25;;;;;;;9.63;6.10;;;;;;;;;;5006485;28;20041;-78
2022/04/13 12:09:01;;;;;;;10.82;6.18;;;;;;;;;;5007363;28;20412;-78
2022/04/13 12:11:40;;;;;;;8.98;5.63;;;;;;;;;;5005552;28;20049;-78
2022/04/13 12:14:06;;;;;;;10.13;6.25;;;;;;;;;;4996139;28;20596;-78
2022/04/13 12:16:38;;;;;;;16.13;7.13;;;;;;;;;;4997379;28;20040;-78
2022/04/13 12:19:05;;;;;;;11.85;6.45;;;;;;;;;;4998155;28;20027;-78
2022/04/13 12:21:32;;;;;;;11.25;6.75;;;;;;;;;;4997092;28;20022;-79
2022/04/13 12:24:01;;;;;;;9.95;5.80;;;;;;;;;;5000470;28;20420;-79
2022/04/13 12:26:34;;;;;;;8.00;5.13;;;;;;;;;;5001243;28;20033;-77
2022/04/13 12:29:01;;;;;;;10.70;6.25;;;;;;;;;;4994203;28;20240;-78
2022/04/13 12:31:27;;;;;;;11.98;6.10;;;;;;;;;;4993481;28;20037;-78
2022/04/13 12:33:59;;;;;;;12.05;6.60;;;;;;;;;;5004826;28;20040;-78
2022/04/13 12:36:25;;;;;;;9.88;6.30;;;;;;;;;;4998377;28;20041;-77
2022/04/13 12:38:54;;;;;;;11.30;5.72;;;;;;;;;;4991906;28;20068;-78
2022/04/13 12:41:21;;;;;;;7.93;5.70;;;;;;;;;;4996203;28;20022;-78
2022/04/13 12:43:56;;;;;;;9.77;6.07;;;;;;;;;;4995395;28;20034;-78
2022/04/13 12:46:22;;;;;;;10.15;5.65;;;;;;;;;;5000231;28;20467;-78
2022/04/13 12:48:49;;;;;;;7.47;5.22;;;;;;;;;;5006260;28;20037;-79
2022/04/13 12:51:16;;;;;;;10.20;5.75;;;;;;;;;;4995265;28;20481;-79
2022/04/13 12:53:43;;;;;;;7.57;5.50;;;;;;;;;;5002459;28;20045;-79
2022/04/13 12:56:13;;;;;;;8.57;5.72;;;;;;;;;;5010846;28;20048;-79
2022/04/13 12:58:39;;;;;;;9.48;5.35;;;;;;;;;;5014176;28;20018;-79
2022/04/13 13:01:05;;;;;;;8.07;5.38;;;;;;;;;;5010129;28;20076;-78
2022/04/13 13:03:39;;;;;;;6.90;5.22;;;;;;;;;;4996224;28;20023;-79
2022/04/13 13:06:08;;;;;;;9.52;5.88;;;;;;;;;;5009816;28;20025;-79
2022/04/13 13:08:35;;;;;;;11.30;5.75;;;;;;;;;;5003905;28;20255;-79
2022/04/13 13:11:00;;;;;;;8.63;5.63;;;;;;;;;;4999877;28;20029;-78
2022/04/13 13:13:36;;;;;;;10.18;5.60;;;;;;;;;;5001891;28;20027;-79
2022/04/13 13:16:02;;;;;;;8.35;5.25;;;;;;;;;;5002908;28;20034;-79
2022/04/13 13:18:28;;;;;;;10.45;4.88;;;;;;;;;;4999987;28;20105;-80
2022/04/13 13:20:54;;;;;;;9.38;5.13;;;;;;;;;;5002485;28;20046;-79
2022/04/13 13:23:27;;;;;;;18.83;5.38;;;;;;;;;;5011245;28;20469;-79
2022/04/13 13:25:54;;;;;;;10.48;5.50;;;;;;;;;;4999508;28;20058;-79
2022/04/13 13:28:26;;;;;;;9.27;5.90;;;;;;;;;;5021707;28;20085;-78
2022/04/13 13:30:54;;;;;;;13.02;6.60;;;;;;;;;;5011091;28;20022;-78
2022/04/13 13:33:20;;;;;;;10.40;6.50;;;;;;;;;;4999493;28;20518;-80
2022/04/13 13:35:46;;;;;;;7.88;5.65;;;;;;;;;;5003748;28;20251;-80
2022/04/13 13:38:16;;;;;;;10.68;5.18;;;;;;;;;;5002271;28;20366;-79
2022/04/13 13:40:43;;;;;;;6.18;4.72;;;;;;;;;;4996361;28;20380;-80
2022/04/13 13:43:10;;;;;;;8.55;5.07;;;;;;;;;;4997255;28;20026;-79
2022/04/13 13:45:37;;;;;;;12.30;5.45;;;;;;;;;;5005214;28;20494;-79
2022/04/13 13:48:04;;;;;;;10.07;4.97;;;;;;;;;;5008696;28;20100;-79
2022/04/13 13:50:31;;;;;;;10.93;6.20;;;;;;;;;;4995886;28;20547;-79
2022/04/13 13:52:57;;;;;;;12.10;5.22;;;;;;;;;;5003606;28;20022;-80
2022/04/13 13:55:25;;;;;;;13.50;7.85;;;;;;;;;;4998784;28;20030;-80
2022/04/13 13:57:50;;;;;;;7.07;6.07;;;;;;;;;;5007018;28;20026;-80
2022/04/13 14:00:17;;;;;;;7.97;5.22;;;;;;;;;;5002057;28;20033;-80
2022/04/13 14:02:42;;;;;;;10.10;6.82;;;;;;;;;;5011064;28;20026;-80
2022/04/13 14:05:08;;;;;;;8.68;5.20;;;;;;;;;;5003285;28;20501;-78
2022/04/13 14:07:35;;;;;;;11.02;5.88;;;;;;;;;;5018433;28;20373;-78
2022/04/13 14:10:01;;;;;;;8.10;4.80;;;;;;;;;;5003917;28;20088;-79
2022/04/13 14:12:27;;;;;;;9.20;5.50;;;;;;;;;;5001637;28;20447;-81
2022/04/13 14:14:54;;;;;;;9.68;5.03;;;;;;;;;;5009413;28;20397;-78
2022/04/13 14:17:21;;;;;;;9.23;4.88;;;;;;;;;;5003844;28;20034;-79
2022/04/13 14:19:46;;;;;;;7.40;4.50;;;;;;;;;;5002971;28;20030;-78
2022/04/13 14:22:12;;;;;;;7.38;4.88;;;;;;;;;;5006413;28;20026;-78
2022/04/13 14:24:38;;;;;;;9.50;5.40;;;;;;;;;;5000206;28;20463;-79
2022/04/13 14:27:04;;;;;;;7.10;4.53;;;;;;;;;;4998097;28;20045;-79
2022/04/13 14:29:30;;;;;;;6.40;4.05;;;;;;;;;;4996443;28;20524;-78
2022/04/13 14:31:56;;;;;;;10.60;5.20;;;;;;;;;;4998593;28;20508;-78